Time;durP1;ratioP1;P1;durP2;ratioP2;P2;SDS_P1;SDS_P2;PMS_P1;PMS_P2;Temp;Humidity;BMP_temperature;BMP_pressure;BME280_temperature;BME280_humidity;BME280_pressure;Samples;Min_cycle;Max_cycle;Signal;HPM_P1;HPM_P2
2021/11/03 00:00:00;;;;;;;5.80;4.77;;;;;;;8.16;84.55;98956.03;5018526;28;20431;-78
2021/11/03 00:02:25;;;;;;;4.57;4.17;;;;;;;8.15;84.91;98955.22;5020574;28;20411;-78
2021/11/03 00:04:51;;;;;;;3.85;3.53;;;;;;;8.16;84.58;98956.84;5026067;28;20482;-78
2021/11/03 00:07:17;;;;;;;7.97;4.63;;;;;;;8.19;84.80;98953.59;5027629;28;20446;-78
2021/11/03 00:09:43;;;;;;;6.82;4.68;;;;;;;8.24;84.61;98952.78;5017411;28;20410;-78
2021/11/03 00:12:15;;;;;;;5.00;4.50;;;;;;;8.26;84.83;98934.47;5021424;28;20401;-78
2021/11/03 00:14:40;;;;;;;5.32;4.82;;;;;;;8.24;84.13;98925.81;5025933;28;20730;-78
2021/11/03 00:17:06;;;;;;;4.75;4.35;;;;;;;8.18;83.96;98919.59;5027468;28;20403;-78
2021/11/03 00:19:32;;;;;;;5.32;4.80;;;;;;;8.20;84.21;98919.34;5019288;28;20391;-78
2021/11/03 00:21:58;;;;;;;5.27;4.00;;;;;;;8.24;84.22;98915.00;5025309;28;20462;-78
2021/11/03 00:24:23;;;;;;;5.37;4.87;;;;;;;8.22;84.70;98899.09;5021077;28;20498;-78
2021/11/03 00:26:48;;;;;;;5.32;4.82;;;;;;;8.21;84.00;98904.75;5033801;28;20429;-78
2021/11/03 00:29:13;;;;;;;4.17;3.77;;;;;;;8.20;84.58;98900.47;5034845;28;20387;-78
2021/11/03 00:31:39;;;;;;;4.77;3.30;;;;;;;8.23;84.28;98894.53;5034957;28;20402;-78
2021/11/03 00:34:04;;;;;;;4.10;3.17;;;;;;;8.28;84.60;98899.94;5028926;28;20497;-78
2021/11/03 00:36:29;;;;;;;3.47;3.00;;;;;;;8.27;84.61;98890.19;5018791;28;20393;-78
2021/11/03 00:38:55;;;;;;;3.73;3.37;;;;;;;8.24;84.50;98894.25;5018563;28;20402;-78
2021/11/03 00:41:20;;;;;;;5.57;2.80;;;;;;;8.24;84.51;98885.31;5027382;28;20840;-78
2021/11/03 00:43:46;;;;;;;2.10;2.00;;;;;;;8.25;84.57;98878.84;5022754;28;20399;-78
2021/11/03 00:46:11;;;;;;;3.47;2.00;;;;;;;8.27;84.29;98874.00;5026963;28;20416;-78
2021/11/03 00:48:39;;;;;;;2.10;2.00;;;;;;;8.29;84.11;98870.00;5030162;28;20400;-78
2021/11/03 00:51:04;;;;;;;2.00;1.90;;;;;;;8.26;84.09;98873.22;5034483;28;20449;-78
2021/11/03 00:53:29;;;;;;;1.33;1.30;;;;;;;8.29;83.96;98874.59;5029295;28;20411;-78
2021/11/03 00:55:55;;;;;;;2.13;1.33;;;;;;;8.29;83.94;98866.50;5019563;28;20405;-78
2021/11/03 00:58:20;;;;;;;2.07;1.40;;;;;;;8.29;84.09;98861.09;5031071;28;20533;-78
2021/11/03 01:00:46;;;;;;;2.08;1.83;;;;;;;8.26;83.82;98862.41;5019927;28;20411;-78
2021/11/03 01:03:11;;;;;;;2.30;1.60;;;;;;;8.28;83.59;98857.56;5024191;28;20496;-78
2021/11/03 01:05:40;;;;;;;1.60;1.50;;;;;;;8.33;83.87;98859.47;5027316;28;20441;-78
2021/11/03 01:08:08;;;;;;;1.95;1.40;;;;;;;8.35;83.35;98862.72;5033557;28;20398;-78
2021/11/03 01:10:34;;;;;;;3.80;1.20;;;;;;;8.38;83.91;98858.66;5019341;28;20456;-78
2021/11/03 01:13:00;;;;;;;2.00;1.80;;;;;;;8.38;83.19;98856.78;5031967;28;20757;-78
2021/11/03 01:15:25;;;;;;;1.88;1.48;;;;;;;8.38;83.33;98853.25;5031305;28;20421;-78
2021/11/03 01:17:55;;;;;;;2.75;1.63;;;;;;;8.43;83.56;98856.75;5018020;28;20860;-78
2021/11/03 01:20:21;;;;;;;4.28;1.33;;;;;;;8.45;83.56;98857.31;5029520;28;20409;-78
2021/11/03 01:22:46;;;;;;;3.25;1.20;;;;;;;8.47;83.55;98857.03;5022664;28;20482;-79
2021/11/03 01:25:14;;;;;;;3.30;1.20;;;;;;;8.50;84.05;98854.59;5028327;28;20809;-78
2021/11/03 01:27:41;;;;;;;1.23;1.23;;;;;;;8.53;83.84;98850.59;5025574;28;20454;-78
2021/11/03 01:30:14;;;;;;;1.75;1.10;;;;;;;8.55;84.12;98857.31;5029645;28;20397;-79
2021/11/03 01:32:40;;;;;;;2.92;1.63;;;;;;;8.55;83.39;98845.72;5022775;28;20383;-79
2021/11/03 01:35:07;;;;;;;1.73;1.10;;;;;;;8.57;83.94;98851.63;5020215;28;20411;-79
2021/11/03 01:37:32;;;;;;;2.03;1.43;;;;;;;8.58;84.04;98850.56;5014957;28;20871;-79
2021/11/03 01:39:58;;;;;;;5.30;1.90;;;;;;;8.56;84.25;98853.53;5033710;28;20401;-79
2021/11/03 01:42:23;;;;;;;1.50;1.40;;;;;;;8.57;84.10;98867.84;5031664;28;20407;-79
2021/11/03 01:44:48;;;;;;;1.10;1.07;;;;;;;8.55;83.95;98864.59;5033640;28;20878;-78
2021/11/03 01:47:43;;;;;;;2.17;1.57;;;;;;;8.52;84.54;98859.75;5018301;28;20404;-79
2021/11/03 01:50:24;;;;;;;3.67;2.23;;;;;;;8.47;84.42;98857.84;5026086;28;20397;-79
2021/11/03 01:53:05;;;;;;;4.43;2.80;;;;;;;8.44;84.39;98863.78;5026572;28;20880;-78
2021/11/03 01:55:31;;;;;;;4.25;2.70;;;;;;;8.42;84.10;98860.56;5017432;28;20469;-79
2021/11/03 01:58:07;;;;;;;5.45;3.15;;;;;;;8.40;84.44;98864.63;5026688;28;20450;-79
2021/11/03 02:00:37;;;;;;;3.17;2.97;;;;;;;8.40;84.38;98860.00;5031544;28;20758;-79
2021/11/03 02:03:07;;;;;;;3.70;3.40;;;;;;;8.44;84.57;98863.78;5017410;28;20388;-78
2021/11/03 02:05:32;;;;;;;4.68;3.30;;;;;;;8.48;84.80;98858.66;5017943;28;20441;-79
2021/11/03 02:08:00;;;;;;;5.50;2.87;;;;;;;8.50;85.03;98857.31;5017266;28;20448;-78
2021/11/03 02:10:26;;;;;;;3.67;3.20;;;;;;;8.52;84.39;98859.75;5025200;28;20407;-77
2021/11/03 02:12:51;;;;;;;3.42;3.15;;;;;;;8.53;84.59;98856.75;5033072;28;20781;-77
2021/11/03 02:15:17;;;;;;;3.10;2.90;;;;;;;8.55;84.77;98851.09;5016848;28;20514;-77
2021/11/03 02:17:44;;;;;;;4.63;2.92;;;;;;;8.53;85.05;98854.06;5026443;28;20413;-79
2021/11/03 02:20:12;;;;;;;3.73;3.30;;;;;;;8.52;84.62;98849.75;5021772;28;20397;-78
2021/11/03 02:23:01;;;;;;;3.08;2.78;;;;;;;8.54;85.34;98852.19;5028633;28;20909;-79
2021/11/03 02:25:33;;;;;;;3.50;3.20;;;;;;;8.55;85.05;98851.09;5018266;28;20426;-79
2021/11/03 02:28:01;;;;;;;4.90;3.20;;;;;;;8.56;84.70;98858.13;5032798;28;20735;-79
2021/11/03 02:30:26;;;;;;;4.10;3.20;;;;;;;8.58;85.15;98861.38;5017776;28;20871;-79
2021/11/03 02:33:23;;;;;;;2.97;2.77;;;;;;;8.58;84.78;98855.97;5015835;28;20400;-79
2021/11/03 02:35:55;;;;;;;3.72;2.90;;;;;;;8.58;84.76;98856.78;5026986;28;20403;-77
2021/11/03 02:38:31;;;;;;;7.32;2.90;;;;;;;8.56;84.94;98855.44;5030560;28;20406;-79
2021/11/03 02:41:08;;;;;;;3.35;2.80;;;;;;;8.57;85.24;98860.53;5017064;28;20433;-79
2021/11/03 02:43:43;;;;;;;3.22;3.03;;;;;;;8.56;85.00;98858.13;5031475;28;20383;-79
2021/11/03 02:46:11;;;;;;;3.40;3.10;;;;;;;8.57;85.54;98857.03;5018365;28;20425;-77
2021/11/03 02:48:38;;;;;;;3.35;3.05;;;;;;;8.57;85.48;98846.22;5014984;28;20398;-79
2021/11/03 02:51:06;;;;;;;3.90;3.55;;;;;;;8.56;84.91;98836.53;5024241;28;20397;-79
2021/11/03 02:53:34;;;;;;;4.97;4.03;;;;;;;8.58;85.58;98834.38;5020567;28;20428;-77
2021/11/03 02:55:59;;;;;;;5.93;3.53;;;;;;;8.59;85.61;98842.22;5029198;28;20399;-77
2021/11/03 02:58:25;;;;;;;2.83;2.50;;;;;;;8.61;85.38;98837.34;5016179;28;20401;-77
2021/11/03 03:00:52;;;;;;;3.17;1.73;;;;;;;8.62;85.11;98824.66;5025807;28;20417;-79
2021/11/03 03:03:17;;;;;;;5.13;1.77;;;;;;;8.63;85.06;98823.53;5017704;28;20405;-77
2021/11/03 03:05:50;;;;;;;3.17;1.60;;;;;;;8.63;85.37;98828.94;5026326;28;20441;-79
2021/11/03 03:08:15;;;;;;;4.60;1.65;;;;;;;8.65;85.42;98821.41;5015861;28;20392;-77
2021/11/03 03:10:40;;;;;;;3.83;1.90;;;;;;;8.64;85.10;98814.38;5025135;28;20412;-79
2021/11/03 03:13:06;;;;;;;2.80;1.60;;;;;;;8.62;85.07;98813.84;5014793;28;20493;-79
2021/11/03 03:15:31;;;;;;;2.00;1.30;;;;;;;8.61;85.56;98820.31;5029917;28;20399;-77
2021/11/03 03:17:56;;;;;;;5.22;2.38;;;;;;;8.63;85.73;98804.63;5014254;28;20405;-79
2021/11/03 03:20:21;;;;;;;3.30;2.00;;;;;;;8.64;85.02;98804.38;5024003;28;20446;-79
2021/11/03 03:22:47;;;;;;;2.65;2.22;;;;;;;8.67;85.40;98805.72;5011872;28;20405;-79
2021/11/03 03:25:12;;;;;;;2.70;2.50;;;;;;;8.66;85.57;98799.50;5024348;28;20398;-79
2021/11/03 03:27:37;;;;;;;3.10;2.43;;;;;;;8.67;85.71;98794.91;5029009;28;20539;-79
2021/11/03 03:30:04;;;;;;;1.73;1.63;;;;;;;8.67;85.31;98797.63;5026787;28;20410;-78
2021/11/03 03:32:30;;;;;;;2.23;2.03;;;;;;;8.66;85.41;98796.81;5031790;28;20460;-79
2021/11/03 03:34:55;;;;;;;2.90;2.33;;;;;;;8.67;84.86;98795.75;5027690;28;20824;-79
2021/11/03 03:37:21;;;;;;;2.83;2.27;;;;;;;8.68;85.56;98791.16;5026584;28;20943;-79
2021/11/03 03:39:46;;;;;;;2.97;1.97;;;;;;;8.66;85.06;98790.63;5014995;28;20440;-79
2021/11/03 03:42:16;;;;;;;2.97;2.40;;;;;;;8.62;85.32;98776.03;5024912;28;20416;-79
2021/11/03 03:44:42;;;;;;;4.97;3.00;;;;;;;8.58;85.76;98786.56;5022544;28;20388;-78
2021/11/03 03:47:08;;;;;;;4.10;2.38;;;;;;;8.54;85.88;98768.47;5017052;28;20888;-79
2021/11/03 03:49:34;;;;;;;2.13;2.03;;;;;;;8.54;85.86;98772.00;5021167;28;20396;-79
2021/11/03 03:52:00;;;;;;;2.30;1.95;;;;;;;8.56;86.28;98779.84;5028839;28;20426;-79
2021/11/03 03:54:27;;;;;;;5.55;1.95;;;;;;;8.56;85.75;98774.44;5021041;28;20389;-79
2021/11/03 03:56:53;;;;;;;4.53;2.65;;;;;;;8.49;86.10;98758.53;5025761;28;20402;-79
2021/11/03 03:59:18;;;;;;;4.53;2.15;;;;;;;8.50;85.89;98759.31;5029535;28;20387;-78
2021/11/03 04:01:44;;;;;;;3.30;2.10;;;;;;;8.57;86.13;98762.53;5011775;28;20486;-79
2021/11/03 04:04:10;;;;;;;3.40;1.87;;;;;;;8.60;85.67;98760.09;5022432;28;20401;-79
2021/11/03 04:06:35;;;;;;;4.85;2.47;;;;;;;8.62;85.27;98755.25;5024726;28;20394;-79
2021/11/03 04:09:02;;;;;;;5.53;2.70;;;;;;;8.66;85.33;98755.53;5030916;28;20412;-79
2021/11/03 04:11:27;;;;;;;4.15;3.00;;;;;;;8.68;85.36;98745.25;5023921;28;20723;-79
2021/11/03 04:13:52;;;;;;;11.93;3.70;;;;;;;8.59;85.25;98738.78;5025720;28;20418;-79
2021/11/03 04:16:18;;;;;;;6.97;2.90;;;;;;;8.57;85.92;98740.94;5019269;28;20812;-78
2021/11/03 04:18:46;;;;;;;4.63;2.30;;;;;;;8.55;85.82;98735.00;5027451;28;20486;-79
2021/11/03 04:21:13;;;;;;;3.95;1.80;;;;;;;8.58;85.69;98732.56;5015681;28;20506;-79
2021/11/03 04:23:38;;;;;;;3.85;1.35;;;;;;;8.66;85.88;98732.00;5019396;28;20404;-79
2021/11/03 04:26:05;;;;;;;3.58;1.40;;;;;;;8.69;85.75;98733.38;5029748;28;20862;-78
2021/11/03 04:28:31;;;;;;;2.13;1.10;;;;;;;8.68;85.63;98731.75;5029755;28;20403;-78
2021/11/03 04:30:56;;;;;;;6.30;2.93;;;;;;;8.64;85.45;98730.66;5027403;28;20395;-78
2021/11/03 04:33:22;;;;;;;4.17;1.37;;;;;;;8.62;85.19;98727.44;5024134;28;20496;-79
2021/11/03 04:35:48;;;;;;;1.90;1.10;;;;;;;8.59;85.24;98717.19;5021866;28;20536;-79
2021/11/03 04:38:15;;;;;;;1.98;1.17;;;;;;;8.57;85.13;98720.16;5016508;28;20423;-79
2021/11/03 04:40:41;;;;;;;3.25;1.38;;;;;;;8.61;85.50;98717.72;5029787;28;20449;-79
2021/11/03 04:43:06;;;;;;;1.83;1.30;;;;;;;8.62;84.94;98712.06;5025966;28;20384;-79
2021/11/03 04:45:31;;;;;;;2.83;1.20;;;;;;;8.61;85.30;98704.22;5021169;28;20878;-79
2021/11/03 04:47:57;;;;;;;3.70;1.27;;;;;;;8.63;85.08;98699.34;5023232;28;20383;-79
2021/11/03 04:50:29;;;;;;;1.60;1.40;;;;;;;8.64;85.55;98695.56;5024492;28;20479;-79
2021/11/03 04:52:55;;;;;;;3.28;1.13;;;;;;;8.66;85.14;98698.81;5029588;28;20404;-79
2021/11/03 04:55:21;;;;;;;5.63;1.85;;;;;;;8.65;85.31;98695.28;5020872;28;20404;-79
2021/11/03 04:57:47;;;;;;;4.10;1.35;;;;;;;8.67;85.55;98700.41;5024880;28;20383;-79
2021/11/03 05:00:27;;;;;;;4.32;1.40;;;;;;;8.69;85.22;98700.97;5028993;28;20397;-79
2021/11/03 05:02:53;;;;;;;4.10;1.83;;;;;;;8.70;84.99;98694.44;5017610;28;20914;-79
2021/11/03 05:05:19;;;;;;;2.22;1.60;;;;;;;8.72;84.85;98684.19;5022137;28;20759;-79
2021/11/03 05:07:44;;;;;;;4.00;1.50;;;;;;;8.70;85.05;98684.47;5018191;28;20401;-79
2021/11/03 05:10:10;;;;;;;1.87;1.57;;;;;;;8.71;85.13;98687.97;5032657;28;20415;-79
2021/11/03 05:12:35;;;;;;;3.77;1.93;;;;;;;8.71;85.57;98687.97;5023367;28;20387;-79
2021/11/03 05:15:01;;;;;;;6.20;2.07;;;;;;;8.73;85.52;98677.69;5023172;28;20406;-79
2021/11/03 05:17:26;;;;;;;8.18;2.83;;;;;;;8.74;85.33;98679.31;5033696;28;20387;-80
2021/11/03 05:19:51;;;;;;;4.40;3.27;;;;;;;8.74;85.72;98676.63;5032976;28;20450;-79
2021/11/03 05:22:20;;;;;;;4.33;2.87;;;;;;;8.74;85.48;98669.34;5019335;28;20769;-79
2021/11/03 05:24:45;;;;;;;4.05;2.20;;;;;;;8.74;85.22;98666.63;5027236;28;20404;-79
2021/11/03 05:27:13;;;;;;;5.13;1.80;;;;;;;8.70;85.22;98662.88;5033802;28;20886;-79
2021/11/03 05:29:39;;;;;;;3.70;1.97;;;;;;;8.72;85.05;98665.31;5028566;28;20395;-79
2021/11/03 05:32:05;;;;;;;5.53;2.90;;;;;;;8.72;85.23;98665.31;5018817;28;20741;-79
2021/11/03 05:34:30;;;;;;;5.40;2.70;;;;;;;8.74;85.17;98666.63;5024585;28;20485;-79
2021/11/03 05:36:55;;;;;;;6.17;2.63;;;;;;;8.74;85.22;98653.13;5022520;28;20748;-79
2021/11/03 05:39:21;;;;;;;6.77;2.73;;;;;;;8.74;85.29;98646.91;5032209;28;20460;-79
2021/11/03 05:41:47;;;;;;;4.90;2.50;;;;;;;8.71;85.12;98645.59;5030093;28;20556;-79
2021/11/03 05:44:15;;;;;;;6.40;2.80;;;;;;;8.72;85.23;98649.09;5019058;28;20405;-79
2021/11/03 05:46:46;;;;;;;4.43;2.30;;;;;;;8.72;85.05;98643.69;5019483;28;20888;-78
2021/11/03 05:49:13;;;;;;;4.60;2.28;;;;;;;8.69;85.18;98644.25;5025455;28;20969;-79
2021/11/03 05:51:39;;;;;;;5.05;2.20;;;;;;;8.64;85.36;98636.97;5028764;28;20899;-78
2021/11/03 05:54:05;;;;;;;4.70;2.30;;;;;;;8.59;85.39;98637.00;5021641;28;20410;-79
2021/11/03 05:56:32;;;;;;;5.47;2.40;;;;;;;8.57;85.66;98636.44;5020677;28;20397;-79
2021/11/03 05:58:59;;;;;;;4.22;2.58;;;;;;;8.60;85.45;98630.50;4998876;28;20494;-79
2021/11/03 06:01:25;;;;;;;3.67;2.60;;;;;;;8.66;85.17;98628.59;5023579;28;20415;-79
2021/11/03 06:03:54;;;;;;;3.65;2.40;;;;;;;8.69;85.27;98628.03;5026208;28;20745;-78
2021/11/03 06:06:21;;;;;;;4.72;3.10;;;;;;;8.71;85.58;98625.88;5023553;28;20414;-79
2021/11/03 06:08:48;;;;;;;7.55;3.42;;;;;;;8.71;85.08;98623.97;5023464;28;20916;-79
2021/11/03 06:11:15;;;;;;;5.80;3.78;;;;;;;8.74;84.97;98630.72;5029705;28;20752;-78
2021/11/03 06:13:41;;;;;;;9.20;4.00;;;;;;;8.73;84.79;98629.09;5020233;28;20399;-79
2021/11/03 06:16:07;;;;;;;7.17;3.60;;;;;;;8.75;84.92;98637.75;5031835;28;20788;-79
2021/11/03 06:18:32;;;;;;;4.67;3.10;;;;;;;8.75;85.24;98638.56;5026470;28;20493;-79
2021/11/03 06:20:57;;;;;;;6.87;2.93;;;;;;;8.75;85.30;98638.56;5016346;28;20887;-79
2021/11/03 06:23:23;;;;;;;5.80;3.40;;;;;;;8.74;84.86;98626.13;5026853;28;20404;-79
2021/11/03 06:25:48;;;;;;;5.50;3.20;;;;;;;8.73;85.30;98629.91;5023752;28;20395;-79
2021/11/03 06:28:13;;;;;;;6.32;3.90;;;;;;;8.73;85.24;98627.19;5027206;28;20906;-79
2021/11/03 06:30:39;;;;;;;8.63;4.37;;;;;;;8.74;85.13;98636.13;5022697;28;20401;-79
2021/11/03 06:33:05;;;;;;;8.27;4.77;;;;;;;8.75;85.36;98637.75;5022827;28;20423;-79
2021/11/03 06:35:34;;;;;;;8.00;4.35;;;;;;;8.79;85.27;98649.63;5029059;28;20443;-79
2021/11/03 06:37:59;;;;;;;13.93;5.55;;;;;;;8.79;85.74;98657.72;5020890;28;20427;-79
2021/11/03 06:40:26;;;;;;;11.43;5.50;;;;;;;8.79;85.41;98660.41;5031846;28;20435;-78
2021/11/03 06:42:52;;;;;;;13.07;6.50;;;;;;;8.82;85.08;98657.94;5032066;28;20403;-78
2021/11/03 06:45:18;;;;;;;11.77;6.22;;;;;;;8.84;84.95;98663.88;5022268;28;20895;-78
2021/11/03 06:47:46;;;;;;;11.95;5.65;;;;;;;8.84;85.32;98674.69;5023552;28;20426;-79
2021/11/03 06:50:15;;;;;;;13.00;5.88;;;;;;;8.84;85.03;98680.09;5031514;28;20384;-79
2021/11/03 06:52:41;;;;;;;13.05;7.55;;;;;;;8.84;85.37;98672.00;5025821;28;20389;-79
2021/11/03 06:55:07;;;;;;;15.23;7.60;;;;;;;8.87;85.31;98678.72;5018033;28;20418;-79
2021/11/03 06:57:33;;;;;;;11.35;6.18;;;;;;;8.85;85.20;98676.31;5021966;28;20405;-79
2021/11/03 06:59:59;;;;;;;11.25;5.85;;;;;;;8.86;85.92;98674.41;5029049;28;20434;-78
2021/11/03 07:02:24;;;;;;;13.00;7.90;;;;;;;8.89;85.55;98667.66;5023617;28;20413;-79
2021/11/03 07:04:49;;;;;;;16.63;9.90;;;;;;;8.91;85.34;98673.59;5023450;28;20444;-79
2021/11/03 07:07:15;;;;;;;21.60;12.60;;;;;;;8.92;85.96;98676.03;5023452;28;20399;-78
2021/11/03 07:09:40;;;;;;;21.93;14.20;;;;;;;8.96;85.38;98684.38;5013454;28;20767;-77
2021/11/03 07:12:06;;;;;;;25.13;15.43;;;;;;;8.95;85.44;98678.16;5016027;28;20463;-80
2021/11/03 07:14:31;;;;;;;24.67;15.90;;;;;;;8.93;85.98;98676.81;5024803;28;20415;-79
2021/11/03 07:16:56;;;;;;;18.40;14.82;;;;;;;8.91;85.69;98670.88;5029617;28;20395;-77
2021/11/03 07:19:22;;;;;;;8.77;6.47;;;;;;;8.91;85.69;98660.06;5018154;28;20385;-79
2021/11/03 07:21:47;;;;;;;11.75;8.43;;;;;;;8.89;85.66;98670.38;5023127;28;20428;-79
2021/11/03 07:24:13;;;;;;;5.70;4.90;;;;;;;8.91;86.27;98669.00;5024359;28;20836;-79
2021/11/03 07:26:43;;;;;;;4.15;3.75;;;;;;;8.94;85.99;98675.72;5021832;28;20402;-79
2021/11/03 07:29:10;;;;;;;5.28;4.78;;;;;;;8.98;85.50;98663.28;5031389;28;20990;-79
2021/11/03 07:31:36;;;;;;;7.82;5.80;;;;;;;8.94;85.24;98654.13;5021781;28;20413;-78
2021/11/03 07:34:02;;;;;;;13.50;9.50;;;;;;;8.91;85.83;98652.78;5012448;28;20397;-80
2021/11/03 07:36:27;;;;;;;12.00;8.10;;;;;;;8.95;85.77;98653.84;5020086;28;20395;-78
2021/11/03 07:38:53;;;;;;;7.53;5.97;;;;;;;9.05;86.10;98659.22;5028751;28;20410;-78
2021/11/03 07:41:19;;;;;;;9.47;6.80;;;;;;;9.11;85.53;98654.56;5025327;28;20423;-79
2021/11/03 07:43:45;;;;;;;18.53;12.73;;;;;;;9.17;85.72;98645.34;5021832;28;20411;-78
2021/11/03 07:46:12;;;;;;;17.83;11.85;;;;;;;9.21;85.48;98652.63;5020838;28;20401;-80
2021/11/03 07:48:38;;;;;;;14.00;10.52;;;;;;;9.25;85.43;98664.47;5013911;28;20407;-79
2021/11/03 07:51:07;;;;;;;11.30;7.28;;;;;;;9.26;85.36;98671.50;5023283;28;20395;-80
2021/11/03 07:53:33;;;;;;;8.17;6.63;;;;;;;9.32;84.91;98680.38;5022110;28;20535;-79
2021/11/03 07:56:05;;;;;;;10.25;5.75;;;;;;;9.33;84.82;98669.28;5024120;28;20411;-79
2021/11/03 07:58:34;;;;;;;7.40;4.40;;;;;;;9.33;85.18;98669.28;5019631;28;20470;-79
2021/11/03 08:01:00;;;;;;;7.80;4.87;;;;;;;9.35;85.29;98683.34;5019169;28;20570;-80
2021/11/03 08:03:26;;;;;;;6.07;4.13;;;;;;;9.39;84.97;98684.41;5027040;28;20925;-80
2021/11/03 08:05:53;;;;;;;7.47;5.10;;;;;;;9.41;84.99;98694.94;5022631;28;20491;-80
2021/11/03 08:08:20;;;;;;;10.70;6.00;;;;;;;9.41;85.06;98689.53;5011604;28;20405;-80
2021/11/03 08:10:46;;;;;;;6.85;6.15;;;;;;;9.41;85.41;98688.72;5021624;28;21051;-80
2021/11/03 08:13:16;;;;;;;11.65;6.85;;;;;;;9.40;85.38;98693.31;5013481;28;20411;-80
2021/11/03 08:15:44;;;;;;;5.90;4.90;;;;;;;9.37;85.09;98694.69;5019852;28;20434;-80
2021/11/03 08:18:11;;;;;;;5.90;3.15;;;;;;;9.36;85.16;98698.47;5022928;28;21123;-80
2021/11/03 08:20:37;;;;;;;2.95;2.75;;;;;;;9.34;85.14;98694.44;5021462;28;20416;-80
2021/11/03 08:23:03;;;;;;;3.85;2.60;;;;;;;9.31;85.04;98695.00;5023656;28;20481;-80
2021/11/03 08:25:29;;;;;;;2.97;2.75;;;;;;;9.31;85.54;98695.00;5013744;28;20454;-80
2021/11/03 08:27:55;;;;;;;6.78;4.85;;;;;;;9.31;85.43;98689.59;5022243;28;20431;-80
2021/11/03 08:30:21;;;;;;;7.07;6.15;;;;;;;9.31;85.21;98695.81;5016166;28;20462;-80
2021/11/03 08:32:52;;;;;;;7.38;4.97;;;;;;;9.31;85.66;98693.13;5016954;28;20415;-80
2021/11/03 08:35:19;;;;;;;6.10;4.82;;;;;;;9.32;85.23;98705.53;5030913;28;20427;-79
2021/11/03 08:37:46;;;;;;;5.03;4.63;;;;;;;9.33;85.33;98700.94;5019667;28;20509;-79
2021/11/03 08:40:15;;;;;;;4.90;4.38;;;;;;;9.36;85.76;98705.78;5030394;28;20395;-79
2021/11/03 08:42:40;;;;;;;6.43;4.72;;;;;;;9.37;85.26;98702.00;5029016;28;20408;-80
2021/11/03 08:45:08;;;;;;;4.90;4.50;;;;;;;9.39;85.49;98708.72;5029713;28;20411;-80
2021/11/03 08:47:35;;;;;;;4.68;4.28;;;;;;;9.43;85.68;98713.56;5029926;28;20951;-79
2021/11/03 08:50:00;;;;;;;5.13;4.60;;;;;;;9.45;85.38;98712.19;5016928;28;20432;-79
2021/11/03 08:52:26;;;;;;;6.27;5.20;;;;;;;9.49;85.50;98715.97;5029547;28;20913;-80
2021/11/03 08:54:51;;;;;;;8.07;5.03;;;;;;;9.55;85.42;98712.13;5026753;28;20946;-79
2021/11/03 08:57:19;;;;;;;5.03;4.53;;;;;;;9.61;85.04;98715.63;5016357;28;20412;-80
2021/11/03 08:59:47;;;;;;;6.60;5.13;;;;;;;9.68;85.23;98708.03;5015500;28;20427;-79
2021/11/03 09:02:13;;;;;;;7.63;5.73;;;;;;;9.73;85.11;98706.06;5026440;28;20432;-80
2021/11/03 09:04:38;;;;;;;7.90;7.10;;;;;;;9.75;84.97;98713.91;5013329;28;20441;-80
2021/11/03 09:07:10;;;;;;;7.10;6.40;;;;;;;9.70;84.87;98716.66;5014746;28;20420;-79
2021/11/03 09:09:36;;;;;;;5.63;5.22;;;;;;;9.71;85.00;98718.28;5025329;28;20415;-78
2021/11/03 09:12:03;;;;;;;6.13;4.73;;;;;;;9.70;85.02;98717.47;5030396;28;20436;-80
2021/11/03 09:14:28;;;;;;;7.47;4.20;;;;;;;9.75;85.03;98719.31;5030634;28;20411;-79
2021/11/03 09:16:53;;;;;;;5.13;4.60;;;;;;;9.76;85.25;98716.34;5014967;28;20420;-78
2021/11/03 09:19:19;;;;;;;4.10;3.67;;;;;;;9.81;84.98;98732.50;5016134;28;21318;-84
2021/11/03 09:21:44;;;;;;;5.47;5.03;;;;;;;9.86;85.08;98739.78;5024617;28;20527;-83
2021/11/03 09:24:12;;;;;;;5.47;4.97;;;;;;;9.89;85.15;98733.81;5030899;28;20410;-84
2021/11/03 09:26:37;;;;;;;10.90;7.85;;;;;;;9.93;84.97;98744.88;5022774;28;20401;-83
2021/11/03 09:29:04;;;;;;;10.27;8.95;;;;;;;9.89;85.13;98745.44;5028841;28;20391;-83
2021/11/03 09:31:30;;;;;;;10.52;7.93;;;;;;;9.83;85.31;98743.06;5033044;28;20754;-83
2021/11/03 09:34:00;;;;;;;9.15;6.03;;;;;;;9.82;85.39;98747.66;5027088;28;20419;-83
2021/11/03 09:36:27;;;;;;;6.47;5.88;;;;;;;9.90;85.41;98744.38;5029750;28;20793;-81
2021/11/03 09:38:52;;;;;;;8.23;4.63;;;;;;;9.96;85.23;98747.03;5030228;28;20470;-83
2021/11/03 09:41:41;;;;;;;4.30;3.90;;;;;;;10.03;85.06;98756.44;5029426;28;20418;-83
2021/11/03 09:44:14;;;;;;;5.93;3.83;;;;;;;10.06;84.52;98763.19;5018052;28;20419;-82
2021/11/03 09:46:43;;;;;;;6.63;4.50;;;;;;;9.99;84.43;98768.13;5022848;28;20407;-81
2021/11/03 09:49:09;;;;;;;7.45;4.95;;;;;;;9.95;84.60;98767.88;5016315;28;20393;-84
2021/11/03 09:51:35;;;;;;;5.13;4.57;;;;;;;10.02;84.75;98779.19;5016897;28;20395;-81
2021/11/03 09:54:05;;;;;;;5.38;4.32;;;;;;;10.03;84.64;98774.59;5023877;28;20890;-83
2021/11/03 09:56:38;;;;;;;6.30;4.60;;;;;;;10.01;84.53;98785.69;5031556;28;20905;-83
2021/11/03 09:59:31;;;;;;;5.40;4.10;;;;;;;9.98;84.48;98785.47;5032593;28;20750;-82
2021/11/03 10:02:21;;;;;;;4.60;4.20;;;;;;;9.91;84.79;98783.84;5021652;28;20419;-82
2021/11/03 10:05:09;;;;;;;5.18;4.55;;;;;;;10.02;84.66;98781.06;5021696;28;20409;-82
2021/11/03 10:07:58;;;;;;;5.60;4.88;;;;;;;10.07;84.32;98783.75;5023761;28;20405;-80
2021/11/03 10:10:38;;;;;;;6.18;4.72;;;;;;;10.11;83.97;98790.22;5018478;28;20902;-80
2021/11/03 10:13:34;;;;;;;5.20;4.63;;;;;;;10.13;83.99;98782.63;5013243;28;20420;-82
2021/11/03 10:16:22;;;;;;;4.38;4.07;;;;;;;10.05;84.06;98784.03;5021989;28;20414;-83
2021/11/03 10:18:54;;;;;;;8.60;4.57;;;;;;;10.02;84.53;98784.59;5018472;28;20416;-82
2021/11/03 10:21:24;;;;;;;4.22;3.65;;;;;;;10.11;84.41;98788.31;5027296;28;20423;-83
2021/11/03 10:24:01;;;;;;;4.03;3.72;;;;;;;10.24;84.06;98784.22;5023318;28;20411;-83
2021/11/03 10:26:30;;;;;;;5.32;3.58;;;;;;;10.37;83.71;98795.16;5020340;28;20404;-84
2021/11/03 10:29:35;;;;;;;4.60;4.10;;;;;;;10.44;83.32;98800.25;5029491;28;20406;-84
2021/11/03 10:32:12;;;;;;;5.32;3.78;;;;;;;10.53;82.58;98789.63;5020549;28;20898;-83
2021/11/03 10:34:49;;;;;;;4.03;3.65;;;;;;;10.61;82.70;98786.28;5028410;28;20407;-83
2021/11/03 10:37:17;;;;;;;6.93;3.47;;;;;;;10.61;82.67;98784.41;5019546;28;20391;-83
2021/11/03 10:40:05;;;;;;;4.53;3.28;;;;;;;10.64;82.28;98789.25;5024594;28;20494;-83
2021/11/03 10:42:51;;;;;;;4.60;4.20;;;;;;;10.59;82.51;98793.91;5023142;28;20895;-83
2021/11/03 10:45:25;;;;;;;5.68;4.28;;;;;;;10.56;82.97;98791.78;5021014;28;20407;-83
2021/11/03 10:48:11;;;;;;;4.88;4.53;;;;;;;10.55;83.14;98798.28;5015863;28;20405;-84
2021/11/03 10:50:59;;;;;;;6.05;4.00;;;;;;;10.60;83.36;98790.13;5023732;28;20407;-83
2021/11/03 10:53:36;;;;;;;4.85;4.45;;;;;;;10.74;83.03;98796.47;5022087;28;20403;-83
2021/11/03 10:56:12;;;;;;;6.50;4.18;;;;;;;10.80;82.79;98784.50;5016688;28;20404;-82
2021/11/03 10:58:52;;;;;;;6.47;4.47;;;;;;;10.81;82.72;98780.69;5017648;28;20407;-82
2021/11/03 11:01:36;;;;;;;5.78;5.20;;;;;;;10.79;82.81;98782.88;5019793;28;21018;-82
2021/11/03 11:04:27;;;;;;;6.10;5.23;;;;;;;10.95;82.57;98781.63;5026265;28;20518;-82
2021/11/03 11:07:14;;;;;;;6.20;5.65;;;;;;;10.96;82.46;98777.81;5025572;28;20409;-83
2021/11/03 11:09:49;;;;;;;8.80;5.20;;;;;;;10.97;82.71;98786.75;5014909;28;20434;-83
2021/11/03 11:12:26;;;;;;;5.50;5.03;;;;;;;10.85;82.88;98787.16;5025309;28;20449;-84
2021/11/03 11:15:02;;;;;;;6.05;5.45;;;;;;;10.83;82.96;98779.28;5014591;28;20418;-83
2021/11/03 11:17:46;;;;;;;5.67;5.00;;;;;;;10.86;82.29;98778.75;5022881;28;20411;-83
2021/11/03 11:20:39;;;;;;;6.38;5.10;;;;;;;10.81;82.79;98776.06;5026999;28;20406;-84
2021/11/03 11:23:20;;;;;;;7.28;5.53;;;;;;;10.74;83.20;98782.91;5029310;28;20403;-83
2021/11/03 11:26:04;;;;;;;10.77;7.22;;;;;;;10.75;83.17;98773.69;5024614;28;20407;-84
2021/11/03 11:28:52;;;;;;;8.45;6.85;;;;;;;10.75;83.25;98766.38;5024790;28;20414;-84
2021/11/03 11:31:33;;;;;;;8.38;7.25;;;;;;;10.75;83.23;98771.00;5026583;28;20931;-84
2021/11/03 11:34:10;;;;;;;6.25;5.60;;;;;;;10.72;82.64;98769.66;5019949;28;20405;-87
2021/11/03 11:36:56;;;;;;;10.15;5.97;;;;;;;10.71;82.76;98762.63;5025837;28;20494;-84
2021/11/03 11:39:52;;;;;;;11.32;6.25;;;;;;;10.71;83.37;98762.63;5031081;28;20474;-83
2021/11/03 11:42:23;;;;;;;10.85;6.68;;;;;;;10.76;83.39;98759.06;5017839;28;20427;-86
2021/11/03 11:45:57;;;;;;;8.50;7.65;;;;;;;10.79;83.09;98766.63;5025808;28;20415;-85
2021/11/03 11:48:30;;;;;;;8.73;5.90;;;;;;;10.65;83.31;98766.50;5018711;28;20407;-84